createdAt,value
2017-02-24T00:00:53.065Z,96.11
2017-02-24T00:01:53.022Z,96.11
2017-02-24T00:02:53.011Z,96.11
2017-02-24T00:03:52.989Z,96.2
2017-02-24T00:04:52.963Z,96.3
2017-02-24T00:05:52.952Z,96.3
2017-02-24T00:06:52.928Z,96.86
2017-02-24T00:08:06.302Z,96.58
2017-02-24T00:08:52.889Z,96.77
2017-02-24T00:09:52.869Z,96.73
2017-02-24T00:10:52.864Z,96.58
2017-02-24T00:11:52.843Z,96.77
2017-02-24T00:12:52.808Z,96.77
2017-02-24T00:13:52.993Z,96.96
2017-02-24T00:14:52.795Z,96.96
2017-02-24T00:15:52.763Z,96.77
2017-02-24T00:16:52.746Z,96.82
2017-02-24T00:17:52.733Z,96.82
2017-02-24T00:18:52.913Z,96.63
2017-02-24T00:19:52.688Z,96.91
2017-02-24T00:20:52.681Z,96.63
2017-02-24T00:21:52.657Z,96.82
2017-02-24T00:22:52.641Z,97.77
2017-02-24T00:23:52.629Z,97.58
2017-02-24T00:24:52.604Z,97.67
2017-02-24T00:25:52.579Z,97.48
2017-02-24T00:26:52.550Z,97.43
2017-02-24T00:27:52.525Z,97.2
2017-02-24T00:28:52.522Z,97.2
2017-02-24T00:29:52.493Z,97.2
2017-02-24T00:30:52.468Z,97.43
2017-02-24T00:31:52.462Z,97.2
2017-02-24T00:32:52.447Z,97.43
2017-02-24T00:33:52.410Z,97.43
2017-02-24T00:34:52.397Z,97.86
2017-02-24T00:35:52.376Z,97.81
2017-02-24T00:36:52.373Z,97.62
2017-02-24T00:37:52.346Z,97.81
2017-02-24T00:38:52.322Z,98.33
2017-02-24T00:39:52.308Z,97.86
2017-02-24T00:40:52.289Z,98.14
2017-02-24T00:41:52.261Z,97.81
2017-02-24T00:42:52.252Z,97.91
2017-02-24T00:43:52.221Z,97.72
2017-02-24T00:44:52.205Z,97.72
2017-02-24T00:45:52.206Z,97.72
2017-02-24T00:46:52.179Z,97.81
2017-02-24T00:47:52.154Z,98.57
2017-02-24T00:48:52.151Z,98.47
2017-02-24T00:49:52.117Z,98.47
2017-02-24T00:50:52.093Z,98.38
2017-02-24T00:51:52.083Z,98.47
2017-02-24T00:52:52.052Z,98.47
2017-02-24T00:53:52.062Z,98.85
2017-02-24T00:54:52.029Z,98.57
2017-02-24T00:55:52.006Z,98.57
2017-02-24T00:56:51.976Z,98.47
2017-02-24T00:57:51.979Z,98.47
2017-02-24T00:58:51.937Z,98.57
2017-02-24T00:59:51.930Z,98.94
2017-02-24T01:00:51.914Z,98.47
2017-02-24T01:01:51.882Z,98.57
2017-02-24T01:02:51.867Z,99.04
2017-02-24T01:03:51.849Z,99.13
2017-02-24T01:04:51.834Z,99.51
2017-02-24T01:05:51.803Z,99.41
2017-02-24T01:06:51.785Z,99.32
2017-02-24T01:07:51.776Z,99.51
2017-02-24T01:08:51.767Z,99.51
2017-02-24T01:09:51.739Z,99.7
2017-02-24T01:10:51.706Z,99.7
2017-02-24T01:11:51.710Z,99.88
2017-02-24T01:12:51.676Z,99.99
2017-02-24T01:13:51.647Z,99.99
2017-02-24T01:14:51.642Z,99.98
2017-02-24T01:15:51.632Z,99.99
2017-02-24T01:16:51.650Z,99.98
2017-02-24T01:17:51.585Z,99.99
2017-02-24T01:18:51.552Z,99.99
2017-02-24T01:19:51.542Z,99.99
2017-02-24T01:20:51.518Z,99.99
2017-02-24T01:21:51.502Z,99.99
2017-02-24T01:22:51.494Z,99.99
2017-02-24T01:23:51.473Z,99.99
2017-02-24T01:24:51.446Z,99.99
2017-02-24T01:25:51.442Z,99.99
2017-02-24T01:26:51.406Z,99.99
2017-02-24T01:27:51.402Z,99.99
2017-02-24T01:28:51.368Z,99.99
2017-02-24T01:29:51.338Z,99.99
2017-02-24T01:30:51.325Z,99.99
2017-02-24T01:31:51.303Z,99.99
2017-02-24T01:32:51.286Z,99.99
2017-02-24T01:33:51.281Z,99.99
2017-02-24T01:34:51.246Z,99.99
2017-02-24T01:35:51.225Z,99.99
2017-02-24T01:36:51.203Z,99.99
2017-02-24T01:37:51.194Z,99.99
2017-02-24T01:38:51.181Z,99.99
2017-02-24T01:39:51.173Z,99.99
2017-02-24T01:40:51.148Z,99.99
2017-02-24T01:41:51.110Z,99.99
2017-02-24T01:42:51.104Z,99.99
2017-02-24T01:43:51.070Z,99.99
2017-02-24T01:44:51.058Z,99.99
2017-02-24T01:45:51.031Z,99.99
2017-02-24T01:46:51.024Z,99.99
2017-02-24T01:47:51.001Z,99.99
2017-02-24T01:48:50.974Z,99.99
2017-02-24T01:49:50.972Z,99.99
2017-02-24T01:50:50.944Z,99.99
2017-02-24T01:51:50.929Z,99.99
2017-02-24T01:52:50.894Z,99.99
2017-02-24T01:53:50.876Z,99.99
2017-02-24T01:54:50.865Z,99.99
2017-02-24T01:55:50.833Z,99.99
2017-02-24T01:56:50.862Z,99.99
2017-02-24T01:57:50.811Z,99.99
2017-02-24T01:58:50.790Z,99.99
2017-02-24T01:59:50.763Z,99.99
2017-02-24T02:00:50.740Z,99.99
2017-02-24T02:01:50.730Z,99.99
2017-02-24T02:02:50.710Z,99.99
2017-02-24T02:03:50.674Z,99.99
2017-02-24T02:04:50.654Z,99.99
2017-02-24T02:05:50.661Z,99.99
2017-02-24T02:06:50.640Z,99.99
2017-02-24T02:07:50.611Z,99.99
2017-02-24T02:08:50.623Z,99.99
2017-02-24T02:09:50.570Z,99.99
2017-02-24T02:10:50.549Z,99.99
2017-02-24T02:11:50.528Z,99.99
2017-02-24T02:12:50.515Z,99.99
2017-02-24T02:13:50.489Z,99.99
2017-02-24T02:14:50.470Z,99.99
2017-02-24T02:15:50.445Z,99.99
2017-02-24T02:16:50.428Z,99.99
2017-02-24T02:17:50.406Z,99.99
2017-02-24T02:18:50.380Z,99.99
2017-02-24T02:19:50.373Z,99.99
2017-02-24T02:20:50.342Z,99.99
2017-02-24T02:21:49.941Z,99.99
2017-02-24T02:22:50.305Z,99.99
2017-02-24T02:23:50.276Z,99.99
2017-02-24T02:24:50.256Z,99.99
2017-02-24T02:25:50.243Z,99.99
2017-02-24T02:26:50.207Z,99.99
2017-02-24T02:27:50.188Z,99.99
2017-02-24T02:28:50.186Z,99.84
2017-02-24T02:29:50.144Z,99.84
2017-02-24T02:30:50.143Z,99.18
2017-02-24T02:31:50.125Z,98.71
2017-02-24T02:32:50.090Z,98.04
2017-02-24T02:33:50.079Z,97.67
2017-02-24T02:34:50.058Z,97.1
2017-02-24T02:35:50.037Z,96.91
2017-02-24T02:36:50.016Z,95.78
2017-02-24T02:37:49.993Z,95.87
2017-02-24T02:38:49.580Z,95.12
2017-02-24T02:39:49.942Z,94.36
2017-02-24T02:40:49.936Z,93.99
2017-02-24T02:41:49.925Z,93.51
2017-02-24T02:42:49.882Z,93.8
2017-02-24T02:43:49.859Z,93.13
2017-02-24T02:44:49.853Z,92.57
2017-02-24T02:45:49.843Z,92.1
2017-02-24T02:46:49.416Z,91.44
2017-02-24T02:47:49.778Z,91.53
2017-02-24T02:48:49.758Z,91.25
2017-02-24T02:49:49.360Z,91.16
2017-02-24T02:50:49.746Z,90.68
2017-02-24T02:51:49.710Z,90.59
2017-02-24T02:52:49.692Z,90.12
2017-02-24T02:53:49.668Z,90.4
2017-02-24T02:54:49.633Z,90.21
2017-02-24T02:55:49.624Z,89.93
2017-02-24T02:56:49.605Z,89.55
2017-02-24T02:57:49.582Z,89.55
2017-02-24T02:58:49.566Z,89.36
2017-02-24T02:59:49.532Z,88.89
2017-02-24T03:00:49.527Z,88.98
2017-02-24T03:01:49.500Z,88.42
2017-02-24T03:02:49.522Z,88.42
2017-02-24T03:03:49.469Z,87.85
2017-02-24T03:04:49.431Z,88.04
2017-02-24T03:05:49.420Z,88.04
2017-02-24T03:06:49.404Z,87.95
2017-02-24T03:07:49.378Z,87.57
2017-02-24T03:08:49.363Z,87.29
2017-02-24T03:09:49.343Z,87.66
2017-02-24T03:10:49.322Z,87.19
2017-02-24T03:11:49.288Z,87.05
2017-02-24T03:12:49.263Z,86.68
2017-02-24T03:13:49.259Z,87
2017-02-24T03:14:49.226Z,86.96
2017-02-24T03:15:49.212Z,86.72
2017-02-24T03:16:49.190Z,86.06
2017-02-24T03:17:49.174Z,86.21
2017-02-24T03:18:49.140Z,85.92
2017-02-24T03:19:49.127Z,85.83
2017-02-24T03:20:49.110Z,85.77
2017-02-24T03:21:49.124Z,85.68
2017-02-24T03:22:49.064Z,85.73
2017-02-24T03:23:49.049Z,86.02
2017-02-24T03:24:49.015Z,85.07
2017-02-24T03:25:49.002Z,85.36
2017-02-24T03:26:48.984Z,84.92
2017-02-24T03:27:48.952Z,85.02
2017-02-24T03:28:48.938Z,85.17
2017-02-24T03:29:48.921Z,84.51
2017-02-24T03:30:48.896Z,84.6
2017-02-24T03:31:48.881Z,84.83
2017-02-24T03:32:48.847Z,84.08
2017-02-24T03:33:48.827Z,84.55
2017-02-24T03:34:48.807Z,84.36
2017-02-24T03:35:48.807Z,84.17
2017-02-24T03:36:48.769Z,84.08
2017-02-24T03:37:48.762Z,84.08
2017-02-24T03:38:48.735Z,83.89
2017-02-24T03:39:48.713Z,83.61
2017-02-24T03:40:48.695Z,83.7
2017-02-24T03:41:48.670Z,83.42
2017-02-24T03:42:48.649Z,83.51
2017-02-24T03:43:48.631Z,83.37
2017-02-24T03:44:48.600Z,83.23
2017-02-24T03:45:48.586Z,83.23
2017-02-24T03:46:48.568Z,82.95
2017-02-24T03:47:48.545Z,83.04
2017-02-24T03:48:48.141Z,82.66
2017-02-24T03:49:48.124Z,82.66
2017-02-24T03:50:48.472Z,82.47
2017-02-24T03:51:48.463Z,82.47
2017-02-24T03:52:48.448Z,82.85
2017-02-24T03:53:48.423Z,82.53
2017-02-24T03:54:48.395Z,81.96
2017-02-24T03:55:48.373Z,82.19
2017-02-24T03:56:48.355Z,81.53
2017-02-24T03:57:48.345Z,81.43
2017-02-24T03:58:48.331Z,81.43
2017-02-24T03:59:48.302Z,81.43
2017-02-24T04:00:48.272Z,81.62
2017-02-24T04:01:48.259Z,81.62
2017-02-24T04:02:48.243Z,81.87
2017-02-24T04:03:48.223Z,81.96
2017-02-24T04:04:48.203Z,82.71
2017-02-24T04:05:48.178Z,82.34
2017-02-24T04:06:48.159Z,82.71
2017-02-24T04:07:48.132Z,83
2017-02-24T04:08:48.107Z,83.65
2017-02-24T04:09:48.097Z,83.18
2017-02-24T04:10:48.081Z,83.94
2017-02-24T04:11:48.059Z,83.75
2017-02-24T04:12:48.028Z,83.94
2017-02-24T04:13:48.014Z,84.22
2017-02-24T04:14:47.982Z,84.37
2017-02-24T04:15:47.980Z,84.51
2017-02-24T04:16:47.954Z,84.6
2017-02-24T04:17:47.917Z,84.51
2017-02-24T04:18:47.898Z,85.31
2017-02-24T04:19:47.895Z,84.75
2017-02-24T04:20:47.877Z,85.22
2017-02-24T04:21:47.842Z,85.41
2017-02-24T04:22:47.826Z,85.97
2017-02-24T04:23:47.790Z,85.88
2017-02-24T04:24:47.765Z,86.63
2017-02-24T04:25:47.745Z,86.44
2017-02-24T04:26:47.724Z,86.44
2017-02-24T04:27:47.700Z,86.63
2017-02-24T04:28:47.692Z,86.82
2017-02-24T04:29:47.661Z,87.1
2017-02-24T04:30:47.638Z,87.19
2017-02-24T04:31:47.614Z,87.38
2017-02-24T04:32:47.607Z,87.86
2017-02-24T04:33:47.584Z,87.76
2017-02-24T04:34:47.543Z,87.86
2017-02-24T04:35:47.525Z,88.33
2017-02-24T04:36:47.523Z,88.42
2017-02-24T04:37:47.494Z,88.33
2017-02-24T04:38:47.469Z,88.8
2017-02-24T04:39:47.443Z,88.61
2017-02-24T04:40:47.413Z,89.08
2017-02-24T04:41:47.396Z,88.89
2017-02-24T04:42:47.367Z,88.89
2017-02-24T04:43:47.347Z,89.08
2017-02-24T04:44:47.341Z,88.8
2017-02-24T04:45:47.323Z,88.99
2017-02-24T04:46:47.281Z,89.18
2017-02-24T04:47:47.260Z,89.27
2017-02-24T04:48:47.248Z,89.37
2017-02-24T04:49:47.216Z,89.56
2017-02-24T04:50:47.197Z,89.74
2017-02-24T04:51:47.164Z,89.65
2017-02-24T04:52:47.144Z,89.74
2017-02-24T04:53:47.129Z,89.65
2017-02-24T04:54:47.111Z,89.65
2017-02-24T04:55:47.082Z,89.56
2017-02-24T04:56:47.051Z,89.65
2017-02-24T04:57:47.039Z,89.65
2017-02-24T04:58:47.019Z,89.46
2017-02-24T04:59:46.986Z,89.65
2017-02-24T05:00:46.976Z,89.84
2017-02-24T05:01:46.951Z,89.74
2017-02-24T05:02:46.928Z,89.56
2017-02-24T05:03:46.910Z,89.74
2017-02-24T05:04:46.872Z,89.46
2017-02-24T05:05:46.867Z,89.65
2017-02-24T05:06:46.832Z,89.27
2017-02-24T05:07:46.801Z,89.18
2017-02-24T05:08:46.793Z,89.27
2017-02-24T05:09:46.765Z,89.27
2017-02-24T05:10:46.735Z,89.65
2017-02-24T05:11:46.712Z,90.03
2017-02-24T05:12:46.694Z,89.65
2017-02-24T05:13:46.673Z,89.46
2017-02-24T05:14:46.646Z,89.46
2017-02-24T05:15:46.634Z,89.84
2017-02-24T05:16:46.638Z,89.84
2017-02-24T05:17:46.584Z,90.12
2017-02-24T05:18:46.562Z,90.03
2017-02-24T05:19:46.533Z,90.59
2017-02-24T05:20:46.526Z,90.41
2017-02-24T05:21:46.488Z,90.36
2017-02-24T05:22:46.465Z,90.17
2017-02-24T05:23:46.454Z,90.36
2017-02-24T05:24:46.436Z,90.73
2017-02-24T05:25:46.403Z,90.45
2017-02-24T05:26:46.388Z,90.83
2017-02-24T05:27:46.366Z,90.92
2017-02-24T05:28:46.335Z,91.39
2017-02-24T05:29:46.311Z,91.39
2017-02-24T05:30:46.303Z,91.3
2017-02-24T05:31:46.263Z,90.92
2017-02-24T05:32:46.240Z,91.3
2017-02-24T05:33:46.237Z,91.2
2017-02-24T05:34:46.205Z,91.02
2017-02-24T05:35:46.177Z,91.49
2017-02-24T05:36:46.172Z,90.92
2017-02-24T05:37:46.132Z,91.39
2017-02-24T05:38:46.098Z,91.67
2017-02-24T05:39:46.081Z,91.67
2017-02-24T05:40:46.055Z,91.49
2017-02-24T05:41:46.032Z,91.77
2017-02-24T05:42:46.007Z,91.86
2017-02-24T05:43:45.999Z,91.77
2017-02-24T05:44:45.965Z,92.33
2017-02-24T05:45:45.948Z,92.24
2017-02-24T05:46:45.920Z,92.33
2017-02-24T05:47:45.920Z,92.43
2017-02-24T05:48:45.881Z,92.43
2017-02-24T05:49:45.853Z,92.8
2017-02-24T05:50:45.850Z,92.8
2017-02-24T05:51:45.803Z,92.9
2017-02-24T05:52:45.779Z,92.9
2017-02-24T05:53:45.774Z,93.09
2017-02-24T05:54:45.741Z,93.09
2017-02-24T05:55:45.720Z,93.28
2017-02-24T05:56:45.692Z,92.99
2017-02-24T05:57:45.677Z,92.9
2017-02-24T05:58:45.645Z,93.18
2017-02-24T05:59:45.624Z,93.47
2017-02-24T06:00:45.595Z,93.37
2017-02-24T06:01:45.575Z,93.09
2017-02-24T06:02:45.545Z,93.09
2017-02-24T06:03:45.521Z,93.18
2017-02-24T06:04:45.502Z,93.37
2017-02-24T06:05:45.490Z,93.28
2017-02-24T06:06:45.455Z,93.18
2017-02-24T06:07:45.430Z,93.09
2017-02-24T06:08:45.406Z,93.09
2017-02-24T06:09:45.367Z,92.99
2017-02-24T06:10:45.376Z,93.28
2017-02-24T06:11:45.325Z,93.09
2017-02-24T06:12:45.307Z,93.47
2017-02-24T06:13:45.296Z,93.47
2017-02-24T06:14:45.248Z,93.37
2017-02-24T06:15:45.235Z,93.47
2017-02-24T06:16:45.199Z,93.65
2017-02-24T06:17:45.175Z,93.75
2017-02-24T06:18:45.152Z,93.56
2017-02-24T06:19:45.131Z,93.47
2017-02-24T06:20:45.104Z,93.56
2017-02-24T06:21:45.077Z,93.94
2017-02-24T06:22:45.067Z,94.03
2017-02-24T06:23:45.042Z,94.03
2017-02-24T06:24:44.629Z,94.13
2017-02-24T06:25:44.987Z,94.13
2017-02-24T06:26:44.965Z,94.13
2017-02-24T06:27:44.943Z,94.03
2017-02-24T06:28:44.924Z,94.03
2017-02-24T06:29:44.496Z,94.03
2017-02-24T06:30:44.854Z,94.13
2017-02-24T06:31:44.832Z,94.13
2017-02-24T06:32:44.817Z,93.84
2017-02-24T06:33:44.806Z,94.13
2017-02-24T06:34:44.371Z,93.94
2017-02-24T06:35:44.748Z,93.94
2017-02-24T06:36:44.713Z,93.94
2017-02-24T06:37:44.693Z,93.84
2017-02-24T06:38:44.720Z,94.03
2017-02-24T06:39:44.640Z,94.03
2017-02-24T06:40:44.622Z,94.03
2017-02-24T06:41:44.601Z,93.94
2017-02-24T06:42:44.560Z,94.13
2017-02-24T06:43:44.563Z,94.22
2017-02-24T06:44:44.530Z,94.22
2017-02-24T06:45:44.496Z,94.41
2017-02-24T06:46:44.499Z,94.22
2017-02-24T06:47:44.444Z,94.22
2017-02-24T06:48:44.444Z,94.22
2017-02-24T06:49:44.408Z,94.5
2017-02-24T06:50:44.377Z,94.5
2017-02-24T06:51:44.351Z,94.5
2017-02-24T06:52:44.333Z,94.22
2017-02-24T06:53:44.292Z,94.13
2017-02-24T06:54:44.274Z,94.22
2017-02-24T06:55:44.253Z,94.41
2017-02-24T06:56:44.231Z,94.88
2017-02-24T06:57:44.198Z,94.88
2017-02-24T06:58:44.183Z,94.69
2017-02-24T06:59:44.154Z,94.31
2017-02-24T07:00:44.134Z,94.31
2017-02-24T07:01:44.114Z,94.22
2017-02-24T07:02:43.709Z,94.22
2017-02-24T07:03:44.066Z,94.5
2017-02-24T07:04:44.037Z,94.31
2017-02-24T07:05:44.015Z,94.31
2017-02-24T07:06:44.004Z,94.79
2017-02-24T07:07:43.984Z,94.22
2017-02-24T07:08:43.939Z,94.13
2017-02-24T07:09:43.904Z,94.13
2017-02-24T07:10:43.897Z,94.69
2017-02-24T07:11:43.860Z,94.79
2017-02-24T07:12:43.839Z,94.79
2017-02-24T07:13:43.813Z,94.69
2017-02-24T07:14:43.791Z,94.31
2017-02-24T07:15:43.769Z,94.31
2017-02-24T07:16:43.750Z,94.69
2017-02-24T07:17:43.713Z,94.79
2017-02-24T07:18:43.700Z,94.69
2017-02-24T07:19:43.668Z,94.69
2017-02-24T07:20:43.697Z,94.69
2017-02-24T07:21:43.630Z,94.79
2017-02-24T07:22:43.594Z,94.88
2017-02-24T07:23:43.568Z,94.88
2017-02-24T07:24:43.171Z,94.41
2017-02-24T07:25:43.170Z,94.31
2017-02-24T07:26:43.511Z,94.6
2017-02-24T07:27:43.474Z,94.79
2017-02-24T07:28:43.459Z,94.79
2017-02-24T07:29:43.424Z,94.79
2017-02-24T07:30:43.017Z,94.69
2017-02-24T07:31:43.378Z,94.31
2017-02-24T07:32:43.353Z,94.6
2017-02-24T07:33:43.335Z,94.98
2017-02-24T07:34:43.305Z,94.69
2017-02-24T07:35:43.292Z,94.79
2017-02-24T07:36:43.269Z,94.69
2017-02-24T07:37:43.242Z,94.79
2017-02-24T07:38:43.203Z,94.69
2017-02-24T07:39:43.190Z,94.98
2017-02-24T07:40:43.164Z,94.6
2017-02-24T07:41:43.128Z,94.69
2017-02-24T07:42:43.121Z,94.6
2017-02-24T07:43:43.091Z,94.5
2017-02-24T07:44:43.058Z,94.69
2017-02-24T07:45:43.034Z,94.79
2017-02-24T07:46:43.025Z,94.6
2017-02-24T07:47:42.986Z,94.79
2017-02-24T07:48:42.982Z,94.79
2017-02-24T07:49:42.940Z,94.5
2017-02-24T07:50:42.909Z,94.6
2017-02-24T07:51:42.898Z,94.31
2017-02-24T07:52:42.866Z,94.79
2017-02-24T07:53:42.841Z,94.6
2017-02-24T07:54:42.815Z,94.69
2017-02-24T07:55:42.801Z,94.79
2017-02-24T07:56:42.818Z,94.88
2017-02-24T07:57:42.743Z,94.69
2017-02-24T07:58:42.718Z,94.79
2017-02-24T07:59:42.316Z,94.5
2017-02-24T08:00:42.672Z,94.6
2017-02-24T08:01:42.640Z,94.41
2017-02-24T08:02:42.236Z,94.6
2017-02-24T08:03:42.608Z,94.88
2017-02-24T08:04:42.596Z,94.98
2017-02-24T08:05:42.562Z,94.79
2017-02-24T08:06:42.537Z,94.88
2017-02-24T08:07:42.522Z,94.98
2017-02-24T08:08:42.489Z,94.79
2017-02-24T08:09:42.444Z,94.79
2017-02-24T08:10:42.431Z,94.79
2017-02-24T08:11:42.398Z,94.79
2017-02-24T08:12:42.389Z,95.45
2017-02-24T08:13:42.354Z,95.07
2017-02-24T08:14:42.345Z,95.16
2017-02-24T08:15:42.314Z,95.35
2017-02-24T08:16:42.288Z,95.45
2017-02-24T08:17:42.252Z,94.79
2017-02-24T08:18:42.240Z,94.5
2017-02-24T08:19:42.215Z,94.5
2017-02-24T08:20:42.193Z,94.41
2017-02-24T08:21:42.153Z,94.13
2017-02-24T08:22:42.126Z,93.94
2017-02-24T08:23:42.101Z,93.94
2017-02-24T08:24:42.084Z,93.75
2017-02-24T08:25:42.056Z,93.75
2017-02-24T08:26:42.047Z,93.84
2017-02-24T08:27:42.009Z,94.03
2017-02-24T08:28:41.989Z,93.65
2017-02-24T08:29:41.962Z,93.56
2017-02-24T08:30:41.938Z,93.47
2017-02-24T08:31:41.917Z,93.09
2017-02-24T08:32:41.903Z,93.09
2017-02-24T08:33:41.864Z,93.09
2017-02-24T08:34:41.845Z,93.47
2017-02-24T08:35:41.831Z,93.75
2017-02-24T08:36:41.831Z,93.84
2017-02-24T08:37:41.392Z,94.31
2017-02-24T08:38:41.751Z,94.22
2017-02-24T08:39:41.736Z,94.41
2017-02-24T08:40:41.709Z,94.13
2017-02-24T08:41:41.686Z,93.84
2017-02-24T08:42:41.655Z,93.65
2017-02-24T08:43:41.636Z,93.94
2017-02-24T08:44:41.626Z,93.56
2017-02-24T08:45:41.590Z,93.84
2017-02-24T08:46:41.176Z,93.28
2017-02-24T08:47:41.546Z,93.56
2017-02-24T08:48:41.508Z,92.99
2017-02-24T08:49:41.493Z,92.71
2017-02-24T08:50:41.474Z,92.99
2017-02-24T08:51:41.451Z,92.99
2017-02-24T08:52:41.029Z,93.18
2017-02-24T08:53:41.404Z,93.28
2017-02-24T08:54:41.360Z,93.09
2017-02-24T08:55:41.341Z,92.71
2017-02-24T08:56:41.319Z,92.8
2017-02-24T08:57:41.292Z,92.62
2017-02-24T08:58:41.281Z,92.33
2017-02-24T08:59:41.257Z,91.49
2017-02-24T09:00:41.218Z,91.67
2017-02-24T09:01:41.198Z,91.67
2017-02-24T09:02:41.186Z,92.05
2017-02-24T09:03:41.176Z,92.14
2017-02-24T09:04:41.127Z,91.77
2017-02-24T09:05:41.097Z,91.58
2017-02-24T09:06:41.082Z,92.05
2017-02-24T09:07:41.069Z,92.43
2017-02-24T09:08:41.058Z,92.71
2017-02-24T09:09:41.007Z,92.14
2017-02-24T09:10:41.005Z,92.24
2017-02-24T09:11:40.970Z,92.05
2017-02-24T09:12:40.943Z,91.39
2017-02-24T09:13:40.916Z,91.58
2017-02-24T09:14:40.890Z,91.58
2017-02-24T09:15:40.875Z,91.3
2017-02-24T09:16:40.851Z,91.02
2017-02-24T09:17:40.814Z,90.83
2017-02-24T09:18:40.805Z,90.92
2017-02-24T09:19:40.783Z,91.02
2017-02-24T09:20:40.759Z,91.49
2017-02-24T09:21:40.736Z,91.67
2017-02-24T09:22:40.705Z,91.96
2017-02-24T09:23:40.688Z,92.62
2017-02-24T09:24:40.654Z,92.9
2017-02-24T09:25:40.632Z,92.99
2017-02-24T09:26:40.602Z,93.18
2017-02-24T09:27:40.604Z,93.84
2017-02-24T09:28:40.589Z,93.98
2017-02-24T09:29:40.536Z,94.17
2017-02-24T09:30:40.513Z,94.55
2017-02-24T09:31:40.494Z,95.21
2017-02-24T09:32:40.479Z,95.21
2017-02-24T09:33:40.454Z,95.02
2017-02-24T09:34:40.443Z,94.45
2017-02-24T09:35:40.009Z,94.74
2017-02-24T09:36:40.374Z,94.36
2017-02-24T09:37:40.335Z,94.36
2017-02-24T09:38:40.328Z,94.83
2017-02-24T09:39:40.299Z,94.64
2017-02-24T09:40:40.279Z,95.4
2017-02-24T09:41:40.248Z,95.02
2017-02-24T09:42:40.216Z,95.49
2017-02-24T09:43:40.206Z,95.3
2017-02-24T09:44:40.180Z,95.49
2017-02-24T09:45:40.156Z,95.96
2017-02-24T09:46:40.112Z,96.06
2017-02-24T09:47:40.094Z,95.96
2017-02-24T09:48:40.075Z,95.77
2017-02-24T09:49:40.050Z,96.15
2017-02-24T09:50:40.023Z,95.96
2017-02-24T09:51:39.988Z,95.49
2017-02-24T09:52:39.978Z,95.4
2017-02-24T09:53:39.959Z,96.06
2017-02-24T09:54:39.918Z,95.49
2017-02-24T09:55:39.887Z,95.4
2017-02-24T09:56:39.879Z,96.06
2017-02-24T09:57:39.839Z,96.06
2017-02-24T09:58:39.813Z,96.06
2017-02-24T09:59:39.803Z,96.06
2017-02-24T10:00:39.763Z,95.96
2017-02-24T10:01:39.755Z,96.06
2017-02-24T10:02:39.724Z,95.77
2017-02-24T10:03:39.699Z,96.06
2017-02-24T10:04:39.679Z,96.06
2017-02-24T10:05:39.669Z,95.87
2017-02-24T10:06:39.630Z,96.06
2017-02-24T10:07:39.590Z,95.4
2017-02-24T10:08:39.574Z,95.4
2017-02-24T10:09:39.543Z,95.07
2017-02-24T10:10:39.520Z,94.69
2017-02-24T10:11:39.505Z,94.79
2017-02-24T10:12:39.494Z,94.93
2017-02-24T10:13:39.455Z,95.26
2017-02-24T10:14:39.419Z,95.21
2017-02-24T10:15:39.407Z,95.3
2017-02-24T10:16:39.386Z,95.21
2017-02-24T10:17:39.361Z,94.93
2017-02-24T10:18:39.346Z,95.26
2017-02-24T10:19:39.296Z,94.98
2017-02-24T10:20:39.268Z,95.3
2017-02-24T10:21:39.251Z,95.49
2017-02-24T10:22:39.218Z,95.3
2017-02-24T10:23:39.196Z,95.59
2017-02-24T10:24:39.179Z,95.68
2017-02-24T10:25:39.178Z,95.3
2017-02-24T10:26:39.151Z,95.11
2017-02-24T10:27:39.122Z,95.3
2017-02-24T10:28:39.073Z,94.93
2017-02-24T10:29:39.048Z,95.68
2017-02-24T10:30:39.029Z,95.3
2017-02-24T10:31:39.018Z,95.21
2017-02-24T10:32:38.973Z,95.3
2017-02-24T10:33:38.955Z,95.59
2017-02-24T10:34:38.921Z,95.59
2017-02-24T10:35:38.909Z,95.02
2017-02-24T10:36:38.877Z,95.49
2017-02-24T10:37:38.870Z,95.02
2017-02-24T10:38:38.822Z,95.11
2017-02-24T10:39:38.822Z,95.26
2017-02-24T10:40:38.788Z,94.98
2017-02-24T10:41:38.753Z,95.16
2017-02-24T10:42:38.737Z,94.88
2017-02-24T10:43:38.721Z,95.16
2017-02-24T10:44:38.691Z,94.93
2017-02-24T10:45:38.282Z,95.21
2017-02-24T10:46:38.634Z,95.26
2017-02-24T10:47:38.617Z,95.21
2017-02-24T10:48:38.581Z,95.49
2017-02-24T10:49:38.576Z,95.49
2017-02-24T10:50:38.540Z,95.21
2017-02-24T10:51:38.508Z,95.26
2017-02-24T10:52:38.495Z,94.79
2017-02-24T10:53:38.463Z,95.07
2017-02-24T10:54:38.436Z,94.79
2017-02-24T10:55:38.431Z,95.02
2017-02-24T10:56:38.394Z,95.11
2017-02-24T10:57:38.378Z,95.07
2017-02-24T10:58:38.339Z,94.79
2017-02-24T10:59:38.321Z,94.6
2017-02-24T11:00:37.904Z,94.22
2017-02-24T11:01:38.273Z,93.65
2017-02-24T11:02:38.255Z,93.65
2017-02-24T11:03:38.231Z,93.18
2017-02-24T11:04:38.202Z,92.71
2017-02-24T11:05:38.180Z,92.9
2017-02-24T11:06:38.166Z,92.43
2017-02-24T11:07:38.135Z,92.52
2017-02-24T11:08:38.098Z,92.14
2017-02-24T11:09:38.082Z,92.05
2017-02-24T11:10:38.063Z,91.86
2017-02-24T11:11:38.026Z,92.14
2017-02-24T11:12:38.016Z,92.05
2017-02-24T11:13:38.003Z,91.58
2017-02-24T11:14:37.967Z,92.05
2017-02-24T11:15:37.931Z,92.14
2017-02-24T11:16:37.926Z,92.24
2017-02-24T11:17:37.886Z,92.52
2017-02-24T11:18:37.865Z,92.99
2017-02-24T11:19:37.850Z,93.75
2017-02-24T11:20:37.821Z,93.47
2017-02-24T11:21:37.790Z,93.56
2017-02-24T11:22:37.787Z,93.65
2017-02-24T11:23:37.752Z,93.65
2017-02-24T11:24:37.922Z,93.65
2017-02-24T11:25:37.699Z,93.75
2017-02-24T11:26:37.687Z,92.8
2017-02-24T11:27:37.657Z,92.24
2017-02-24T11:28:37.649Z,92.43
2017-02-24T11:29:37.603Z,92.43
2017-02-24T11:30:37.771Z,92.71
2017-02-24T11:31:37.556Z,92.62
2017-02-24T11:32:37.556Z,92.71
2017-02-24T11:33:37.513Z,92.33
2017-02-24T11:34:37.487Z,92.24
2017-02-24T11:35:37.474Z,92.52
2017-02-24T11:36:37.442Z,92.52
2017-02-24T11:37:37.407Z,92.05
2017-02-24T11:38:37.385Z,92.24
2017-02-24T11:39:37.368Z,92.62
2017-02-24T11:40:37.348Z,92.24
2017-02-24T11:41:37.330Z,92.8
2017-02-24T11:42:37.295Z,92.8
2017-02-24T11:43:37.272Z,92.8
2017-02-24T11:44:37.251Z,93.47
2017-02-24T11:45:37.218Z,93.65
2017-02-24T11:46:37.202Z,93.84
2017-02-24T11:47:37.172Z,93.75
2017-02-24T11:48:37.150Z,93.47
2017-02-24T11:49:37.126Z,93.56
2017-02-24T11:50:37.103Z,94.22
2017-02-24T11:51:36.895Z,93.94
2017-02-24T11:52:37.046Z,93.65
2017-02-24T11:53:37.015Z,93.47
2017-02-24T11:54:37.009Z,93.75
2017-02-24T11:55:36.984Z,92.9
2017-02-24T11:56:36.962Z,93.18
2017-02-24T11:57:36.918Z,92.99
2017-02-24T11:58:36.907Z,93.65
2017-02-24T11:59:36.870Z,93.75
2017-02-24T12:00:36.862Z,93.56
2017-02-24T12:01:37.050Z,93.47
2017-02-24T12:02:50.187Z,94.03
2017-02-24T12:03:36.789Z,94.13
2017-02-24T12:04:36.761Z,93.84
2017-02-24T12:05:36.736Z,94.03
2017-02-24T12:06:36.726Z,94.13
2017-02-24T12:07:36.679Z,94.13
2017-02-24T12:08:36.666Z,94.69
2017-02-24T12:09:36.636Z,94.45
2017-02-24T12:10:36.614Z,94.5
2017-02-24T12:11:36.576Z,94.45
2017-02-24T12:12:36.563Z,94.08
2017-02-24T12:13:36.549Z,94.03
2017-02-24T12:14:36.503Z,94.03
2017-02-24T12:15:36.494Z,94.13
2017-02-24T12:16:36.457Z,94.22
2017-02-24T12:17:36.435Z,94.22
2017-02-24T12:18:36.423Z,94.31
2017-02-24T12:19:36.388Z,94.55
2017-02-24T12:20:36.369Z,94.27
2017-02-24T12:21:36.348Z,94.69
2017-02-24T12:22:36.319Z,94.13
2017-02-24T12:23:36.292Z,94.31
2017-02-24T12:24:36.276Z,94.03
2017-02-24T12:25:36.245Z,94.31
2017-02-24T12:26:36.204Z,94.03
2017-02-24T12:27:36.389Z,93.65
2017-02-24T12:28:35.994Z,93.75
2017-02-24T12:29:36.141Z,93.65
2017-02-24T12:30:36.108Z,93.65
2017-02-24T12:31:36.080Z,93.84
2017-02-24T12:32:36.269Z,93.28
2017-02-24T12:33:36.261Z,92.52
2017-02-24T12:34:36.033Z,92.52
2017-02-24T12:35:35.986Z,92.52
2017-02-24T12:36:35.973Z,92.62
2017-02-24T12:37:36.156Z,92.52
2017-02-24T12:38:36.128Z,92.14
2017-02-24T12:39:35.888Z,92.8
2017-02-24T12:40:35.886Z,92.99
2017-02-24T12:41:35.839Z,93.28
2017-02-24T12:42:35.813Z,93.18
2017-02-24T12:43:35.801Z,93.28
2017-02-24T12:44:35.784Z,93.47
2017-02-24T12:45:35.756Z,93.94
2017-02-24T12:46:35.721Z,94.03
2017-02-24T12:47:35.691Z,94.03
2017-02-24T12:48:35.669Z,94.22
2017-02-24T12:49:35.265Z,93.98
2017-02-24T12:50:35.636Z,94.03
2017-02-24T12:51:35.602Z,94.03
2017-02-24T12:52:35.576Z,94.36
2017-02-24T12:53:35.541Z,94.6
2017-02-24T12:54:35.540Z,93.98
2017-02-24T12:55:35.500Z,94.03